sensor_id;sensor_type;location;lat;lon;timestamp;P1;durP1;ratioP1;P2;durP2;ratioP2
52942;SDS011;38809;53.300;6.614;2023-07-24T00:01:17;7.88;;;4.00;;
52942;SDS011;38809;53.300;6.614;2023-07-24T00:03:43;6.28;;;3.40;;
52942;SDS011;38809;53.300;6.614;2023-07-24T00:06:09;5.65;;;3.58;;
52942;SDS011;38809;53.300;6.614;2023-07-24T00:08:35;6.13;;;3.65;;
52942;SDS011;38809;53.300;6.614;2023-07-24T00:11:01;5.57;;;3.40;;
52942;SDS011;38809;53.300;6.614;2023-07-24T00:13:29;6.90;;;3.42;;
52942;SDS011;38809;53.300;6.614;2023-07-24T00:15:56;7.43;;;3.40;;
52942;SDS011;38809;53.300;6.614;2023-07-24T00:18:22;7.03;;;3.25;;
52942;SDS011;38809;53.300;6.614;2023-07-24T00:20:48;7.38;;;3.53;;
52942;SDS011;38809;53.300;6.614;2023-07-24T00:23:13;5.78;;;3.60;;
52942;SDS011;38809;53.300;6.614;2023-07-24T00:25:39;5.45;;;3.00;;
52942;SDS011;38809;53.300;6.614;2023-07-24T00:28:05;5.18;;;3.25;;
52942;SDS011;38809;53.300;6.614;2023-07-24T00:30:31;5.43;;;3.17;;
52942;SDS011;38809;53.300;6.614;2023-07-24T00:32:56;7.82;;;3.53;;
52942;SDS011;38809;53.300;6.614;2023-07-24T00:35:22;6.78;;;3.42;;
52942;SDS011;38809;53.300;6.614;2023-07-24T00:37:48;5.85;;;3.47;;
52942;SDS011;38809;53.300;6.614;2023-07-24T00:40:14;4.63;;;2.72;;
52942;SDS011;38809;53.300;6.614;2023-07-24T00:42:39;6.97;;;3.00;;
52942;SDS011;38809;53.300;6.614;2023-07-24T00:45:05;6.18;;;3.05;;
52942;SDS011;38809;53.300;6.614;2023-07-24T00:49:57;5.40;;;3.10;;
52942;SDS011;38809;53.300;6.614;2023-07-24T00:52:23;5.15;;;3.10;;
52942;SDS011;38809;53.300;6.614;2023-07-24T00:54:49;6.43;;;3.42;;
52942;SDS011;38809;53.300;6.614;2023-07-24T00:57:15;5.43;;;3.50;;
52942;SDS011;38809;53.300;6.614;2023-07-24T00:59:41;8.00;;;3.42;;
52942;SDS011;38809;53.300;6.614;2023-07-24T01:02:07;6.97;;;3.55;;
52942;SDS011;38809;53.300;6.614;2023-07-24T01:04:33;5.40;;;3.13;;
52942;SDS011;38809;53.300;6.614;2023-07-24T01:06:59;5.03;;;2.92;;
52942;SDS011;38809;53.300;6.614;2023-07-24T01:09:25;8.77;;;3.35;;
52942;SDS011;38809;53.300;6.614;2023-07-24T01:11:59;7.55;;;2.90;;
52942;SDS011;38809;53.300;6.614;2023-07-24T01:14:57;6.30;;;3.15;;
52942;SDS011;38809;53.300;6.614;2023-07-24T01:17:28;5.68;;;3.70;;
52942;SDS011;38809;53.300;6.614;2023-07-24T01:19:57;5.07;;;3.45;;
52942;SDS011;38809;53.300;6.614;2023-07-24T01:27:44;5.78;;;3.38;;
52942;SDS011;38809;53.300;6.614;2023-07-24T01:30:11;6.90;;;3.67;;
52942;SDS011;38809;53.300;6.614;2023-07-24T01:32:39;6.97;;;3.40;;
52942;SDS011;38809;53.300;6.614;2023-07-24T01:35:05;6.15;;;3.60;;
52942;SDS011;38809;53.300;6.614;2023-07-24T01:37:31;7.25;;;3.50;;
52942;SDS011;38809;53.300;6.614;2023-07-24T01:39:59;5.97;;;3.63;;
52942;SDS011;38809;53.300;6.614;2023-07-24T01:44:51;5.82;;;3.63;;
52942;SDS011;38809;53.300;6.614;2023-07-24T01:47:18;6.75;;;4.00;;
52942;SDS011;38809;53.300;6.614;2023-07-24T01:49:44;7.07;;;3.47;;
52942;SDS011;38809;53.300;6.614;2023-07-24T01:52:09;6.55;;;3.90;;
52942;SDS011;38809;53.300;6.614;2023-07-24T01:54:35;7.65;;;4.22;;
52942;SDS011;38809;53.300;6.614;2023-07-24T01:57:00;9.70;;;4.07;;
52942;SDS011;38809;53.300;6.614;2023-07-24T01:59:26;7.32;;;3.50;;
52942;SDS011;38809;53.300;6.614;2023-07-24T02:01:52;6.22;;;3.97;;
52942;SDS011;38809;53.300;6.614;2023-07-24T02:04:17;7.38;;;3.92;;
52942;SDS011;38809;53.300;6.614;2023-07-24T02:06:47;9.52;;;4.45;;
52942;SDS011;38809;53.300;6.614;2023-07-24T02:09:17;6.78;;;4.45;;
52942;SDS011;38809;53.300;6.614;2023-07-24T02:11:43;8.35;;;4.32;;
52942;SDS011;38809;53.300;6.614;2023-07-24T02:14:08;8.93;;;4.18;;
52942;SDS011;38809;53.300;6.614;2023-07-24T02:16:35;8.20;;;4.40;;
52942;SDS011;38809;53.300;6.614;2023-07-24T02:19:01;6.30;;;4.10;;
52942;SDS011;38809;53.300;6.614;2023-07-24T02:21:26;8.00;;;4.28;;
52942;SDS011;38809;53.300;6.614;2023-07-24T02:23:52;7.60;;;4.78;;
52942;SDS011;38809;53.300;6.614;2023-07-24T02:26:18;7.95;;;4.90;;
52942;SDS011;38809;53.300;6.614;2023-07-24T02:28:43;8.65;;;5.25;;
52942;SDS011;38809;53.300;6.614;2023-07-24T02:31:09;7.28;;;5.13;;
52942;SDS011;38809;53.300;6.614;2023-07-24T02:33:35;8.95;;;5.25;;
52942;SDS011;38809;53.300;6.614;2023-07-24T02:36:01;7.82;;;5.40;;
52942;SDS011;38809;53.300;6.614;2023-07-24T02:38:27;10.93;;;6.15;;
52942;SDS011;38809;53.300;6.614;2023-07-24T02:40:52;8.18;;;5.50;;
52942;SDS011;38809;53.300;6.614;2023-07-24T02:43:18;9.90;;;6.30;;
52942;SDS011;38809;53.300;6.614;2023-07-24T02:45:43;9.93;;;5.85;;
52942;SDS011;38809;53.300;6.614;2023-07-24T02:48:09;10.02;;;6.28;;
52942;SDS011;38809;53.300;6.614;2023-07-24T02:50:35;9.55;;;6.35;;
52942;SDS011;38809;53.300;6.614;2023-07-24T02:53:01;10.57;;;6.18;;
52942;SDS011;38809;53.300;6.614;2023-07-24T02:55:27;8.75;;;5.90;;
52942;SDS011;38809;53.300;6.614;2023-07-24T02:57:52;9.52;;;6.40;;
52942;SDS011;38809;53.300;6.614;2023-07-24T03:00:18;9.50;;;6.25;;
52942;SDS011;38809;53.300;6.614;2023-07-24T03:02:44;9.40;;;6.43;;
52942;SDS011;38809;53.300;6.614;2023-07-24T03:05:09;10.43;;;6.25;;
52942;SDS011;38809;53.300;6.614;2023-07-24T03:07:35;10.38;;;6.60;;
52942;SDS011;38809;53.300;6.614;2023-07-24T03:10:02;9.10;;;6.28;;
52942;SDS011;38809;53.300;6.614;2023-07-24T03:12:28;9.60;;;6.93;;
52942;SDS011;38809;53.300;6.614;2023-07-24T03:14:54;9.05;;;6.45;;
52942;SDS011;38809;53.300;6.614;2023-07-24T03:17:19;9.40;;;6.75;;
52942;SDS011;38809;53.300;6.614;2023-07-24T03:19:45;9.13;;;6.28;;
52942;SDS011;38809;53.300;6.614;2023-07-24T03:22:12;8.18;;;5.65;;
52942;SDS011;38809;53.300;6.614;2023-07-24T03:24:38;9.52;;;6.65;;
52942;SDS011;38809;53.300;6.614;2023-07-24T03:27:04;8.13;;;5.35;;
52942;SDS011;38809;53.300;6.614;2023-07-24T03:29:30;11.10;;;6.22;;
52942;SDS011;38809;53.300;6.614;2023-07-24T03:31:55;9.32;;;6.28;;
52942;SDS011;38809;53.300;6.614;2023-07-24T03:34:21;8.73;;;5.75;;
52942;SDS011;38809;53.300;6.614;2023-07-24T03:36:47;8.23;;;5.82;;
52942;SDS011;38809;53.300;6.614;2023-07-24T03:39:12;7.72;;;5.28;;
52942;SDS011;38809;53.300;6.614;2023-07-24T03:41:38;15.48;;;5.72;;
52942;SDS011;38809;53.300;6.614;2023-07-24T03:44:04;8.65;;;5.30;;
52942;SDS011;38809;53.300;6.614;2023-07-24T03:46:31;9.43;;;5.75;;
52942;SDS011;38809;53.300;6.614;2023-07-24T03:48:57;9.13;;;5.80;;
52942;SDS011;38809;53.300;6.614;2023-07-24T03:51:23;8.80;;;5.47;;
52942;SDS011;38809;53.300;6.614;2023-07-24T03:53:48;7.53;;;4.75;;
52942;SDS011;38809;53.300;6.614;2023-07-24T03:56:14;7.93;;;5.03;;
52942;SDS011;38809;53.300;6.614;2023-07-24T03:58:40;7.32;;;4.55;;
52942;SDS011;38809;53.300;6.614;2023-07-24T04:01:06;8.77;;;5.38;;
52942;SDS011;38809;53.300;6.614;2023-07-24T04:05:57;7.10;;;4.72;;
52942;SDS011;38809;53.300;6.614;2023-07-24T04:08:24;7.47;;;5.05;;
52942;SDS011;38809;53.300;6.614;2023-07-24T04:10:49;6.68;;;4.55;;
52942;SDS011;38809;53.300;6.614;2023-07-24T04:13:15;9.25;;;4.65;;
52942;SDS011;38809;53.300;6.614;2023-07-24T04:15:40;6.07;;;4.32;;
52942;SDS011;38809;53.300;6.614;2023-07-24T04:18:06;10.60;;;4.68;;
52942;SDS011;38809;53.300;6.614;2023-07-24T04:20:32;7.72;;;4.45;;
52942;SDS011;38809;53.300;6.614;2023-07-24T04:22:58;7.38;;;4.43;;
52942;SDS011;38809;53.300;6.614;2023-07-24T04:25:23;7.13;;;4.07;;
52942;SDS011;38809;53.300;6.614;2023-07-24T04:27:49;7.60;;;4.85;;
52942;SDS011;38809;53.300;6.614;2023-07-24T04:30:15;8.68;;;4.68;;
52942;SDS011;38809;53.300;6.614;2023-07-24T04:32:41;6.68;;;4.05;;
52942;SDS011;38809;53.300;6.614;2023-07-24T04:35:07;6.95;;;4.47;;
52942;SDS011;38809;53.300;6.614;2023-07-24T04:37:33;9.43;;;4.43;;
52942;SDS011;38809;53.300;6.614;2023-07-24T04:39:59;7.13;;;3.88;;
52942;SDS011;38809;53.300;6.614;2023-07-24T04:42:25;7.38;;;4.25;;
52942;SDS011;38809;53.300;6.614;2023-07-24T04:44:50;9.38;;;4.20;;
52942;SDS011;38809;53.300;6.614;2023-07-24T04:47:16;7.72;;;4.78;;
52942;SDS011;38809;53.300;6.614;2023-07-24T04:49:42;6.15;;;4.13;;
52942;SDS011;38809;53.300;6.614;2023-07-24T04:52:08;10.35;;;4.78;;
52942;SDS011;38809;53.300;6.614;2023-07-24T04:54:33;6.85;;;4.18;;
52942;SDS011;38809;53.300;6.614;2023-07-24T04:56:59;6.45;;;4.10;;
52942;SDS011;38809;53.300;6.614;2023-07-24T04:59:25;6.75;;;4.53;;
52942;SDS011;38809;53.300;6.614;2023-07-24T05:01:50;7.32;;;4.53;;
52942;SDS011;38809;53.300;6.614;2023-07-24T05:04:16;7.03;;;4.93;;
52942;SDS011;38809;53.300;6.614;2023-07-24T05:06:42;7.18;;;4.95;;
52942;SDS011;38809;53.300;6.614;2023-07-24T05:09:08;8.95;;;5.38;;
52942;SDS011;38809;53.300;6.614;2023-07-24T05:11:33;7.18;;;5.05;;
52942;SDS011;38809;53.300;6.614;2023-07-24T05:13:59;7.93;;;5.18;;
52942;SDS011;38809;53.300;6.614;2023-07-24T05:16:25;8.00;;;4.85;;
52942;SDS011;38809;53.300;6.614;2023-07-24T05:18:50;8.25;;;5.65;;
52942;SDS011;38809;53.300;6.614;2023-07-24T05:21:16;7.63;;;5.45;;
52942;SDS011;38809;53.300;6.614;2023-07-24T05:23:42;9.77;;;5.78;;
52942;SDS011;38809;53.300;6.614;2023-07-24T05:26:07;9.48;;;4.60;;
52942;SDS011;38809;53.300;6.614;2023-07-24T05:28:34;6.32;;;4.57;;
52942;SDS011;38809;53.300;6.614;2023-07-24T05:31:04;7.30;;;5.18;;
52942;SDS011;38809;53.300;6.614;2023-07-24T05:33:30;7.80;;;4.70;;
52942;SDS011;38809;53.300;6.614;2023-07-24T05:35:59;7.80;;;4.70;;
52942;SDS011;38809;53.300;6.614;2023-07-24T05:38:26;7.10;;;5.32;;
52942;SDS011;38809;53.300;6.614;2023-07-24T05:40:59;6.95;;;4.75;;
52942;SDS011;38809;53.300;6.614;2023-07-24T05:43:26;8.20;;;5.53;;
52942;SDS011;38809;53.300;6.614;2023-07-24T05:45:53;8.90;;;5.20;;
52942;SDS011;38809;53.300;6.614;2023-07-24T05:48:20;7.05;;;5.03;;
52942;SDS011;38809;53.300;6.614;2023-07-24T05:53:12;7.50;;;5.10;;
52942;SDS011;38809;53.300;6.614;2023-07-24T05:55:38;7.90;;;4.78;;
52942;SDS011;38809;53.300;6.614;2023-07-24T05:58:04;8.23;;;5.65;;
52942;SDS011;38809;53.300;6.614;2023-07-24T06:00:29;7.43;;;5.25;;
52942;SDS011;38809;53.300;6.614;2023-07-24T06:02:55;7.95;;;5.45;;
52942;SDS011;38809;53.300;6.614;2023-07-24T06:05:21;7.93;;;5.40;;
52942;SDS011;38809;53.300;6.614;2023-07-24T06:07:47;7.28;;;5.80;;
52942;SDS011;38809;53.300;6.614;2023-07-24T06:10:12;6.18;;;4.88;;
52942;SDS011;38809;53.300;6.614;2023-07-24T06:12:38;7.45;;;5.40;;
52942;SDS011;38809;53.300;6.614;2023-07-24T06:15:04;8.60;;;5.55;;
52942;SDS011;38809;53.300;6.614;2023-07-24T06:17:31;7.15;;;5.03;;
52942;SDS011;38809;53.300;6.614;2023-07-24T06:19:57;10.13;;;6.20;;
52942;SDS011;38809;53.300;6.614;2023-07-24T06:22:23;9.07;;;5.25;;
52942;SDS011;38809;53.300;6.614;2023-07-24T06:24:49;9.85;;;5.50;;
52942;SDS011;38809;53.300;6.614;2023-07-24T06:27:15;7.78;;;5.32;;
52942;SDS011;38809;53.300;6.614;2023-07-24T06:29:41;7.72;;;5.35;;
52942;SDS011;38809;53.300;6.614;2023-07-24T06:32:06;7.53;;;5.32;;
52942;SDS011;38809;53.300;6.614;2023-07-24T06:34:32;7.93;;;5.50;;
52942;SDS011;38809;53.300;6.614;2023-07-24T06:36:59;8.02;;;5.20;;
52942;SDS011;38809;53.300;6.614;2023-07-24T06:39:24;8.25;;;5.30;;
52942;SDS011;38809;53.300;6.614;2023-07-24T06:41:53;6.85;;;5.22;;
52942;SDS011;38809;53.300;6.614;2023-07-24T06:44:19;8.45;;;5.68;;
52942;SDS011;38809;53.300;6.614;2023-07-24T06:46:45;6.88;;;4.47;;
52942;SDS011;38809;53.300;6.614;2023-07-24T06:49:11;7.55;;;5.40;;
52942;SDS011;38809;53.300;6.614;2023-07-24T06:51:36;6.47;;;4.80;;
52942;SDS011;38809;53.300;6.614;2023-07-24T06:54:03;8.00;;;4.82;;
52942;SDS011;38809;53.300;6.614;2023-07-24T06:56:30;6.72;;;4.32;;
52942;SDS011;38809;53.300;6.614;2023-07-24T06:58:56;7.50;;;5.18;;
52942;SDS011;38809;53.300;6.614;2023-07-24T07:01:21;9.75;;;5.20;;
52942;SDS011;38809;53.300;6.614;2023-07-24T07:03:47;8.02;;;5.50;;
52942;SDS011;38809;53.300;6.614;2023-07-24T07:06:13;7.22;;;5.22;;
52942;SDS011;38809;53.300;6.614;2023-07-24T07:08:38;9.48;;;5.35;;
52942;SDS011;38809;53.300;6.614;2023-07-24T07:11:04;7.85;;;5.20;;
52942;SDS011;38809;53.300;6.614;2023-07-24T07:13:30;7.95;;;5.20;;
52942;SDS011;38809;53.300;6.614;2023-07-24T07:15:56;8.50;;;5.75;;
52942;SDS011;38809;53.300;6.614;2023-07-24T07:18:22;7.30;;;4.82;;
52942;SDS011;38809;53.300;6.614;2023-07-24T07:20:48;8.55;;;5.38;;
52942;SDS011;38809;53.300;6.614;2023-07-24T07:23:14;6.70;;;4.65;;
52942;SDS011;38809;53.300;6.614;2023-07-24T07:25:40;7.72;;;5.88;;
52942;SDS011;38809;53.300;6.614;2023-07-24T07:28:08;8.38;;;5.25;;
52942;SDS011;38809;53.300;6.614;2023-07-24T07:30:34;8.60;;;5.55;;
52942;SDS011;38809;53.300;6.614;2023-07-24T07:33:00;7.70;;;5.50;;
52942;SDS011;38809;53.300;6.614;2023-07-24T07:35:26;7.93;;;5.38;;
52942;SDS011;38809;53.300;6.614;2023-07-24T07:37:51;9.02;;;4.82;;
52942;SDS011;38809;53.300;6.614;2023-07-24T07:40:17;8.73;;;5.13;;
52942;SDS011;38809;53.300;6.614;2023-07-24T07:42:43;10.48;;;5.40;;
52942;SDS011;38809;53.300;6.614;2023-07-24T07:45:10;9.77;;;5.28;;
52942;SDS011;38809;53.300;6.614;2023-07-24T07:47:36;7.43;;;4.60;;
52942;SDS011;38809;53.300;6.614;2023-07-24T07:50:02;7.53;;;5.40;;
52942;SDS011;38809;53.300;6.614;2023-07-24T07:52:28;8.02;;;5.18;;
52942;SDS011;38809;53.300;6.614;2023-07-24T07:54:53;10.90;;;5.32;;
52942;SDS011;38809;53.300;6.614;2023-07-24T07:57:19;7.00;;;4.85;;
52942;SDS011;38809;53.300;6.614;2023-07-24T07:59:45;9.40;;;4.60;;
52942;SDS011;38809;53.300;6.614;2023-07-24T08:02:10;6.55;;;4.45;;
52942;SDS011;38809;53.300;6.614;2023-07-24T08:04:36;8.90;;;5.13;;
52942;SDS011;38809;53.300;6.614;2023-07-24T08:07:02;8.57;;;4.95;;
52942;SDS011;38809;53.300;6.614;2023-07-24T08:09:28;6.97;;;4.18;;
52942;SDS011;38809;53.300;6.614;2023-07-24T08:11:53;10.27;;;4.95;;
52942;SDS011;38809;53.300;6.614;2023-07-24T08:14:19;7.03;;;4.03;;
52942;SDS011;38809;53.300;6.614;2023-07-24T08:16:47;6.07;;;4.60;;
52942;SDS011;38809;53.300;6.614;2023-07-24T08:19:13;8.38;;;4.85;;
52942;SDS011;38809;53.300;6.614;2023-07-24T08:21:39;6.07;;;4.13;;
52942;SDS011;38809;53.300;6.614;2023-07-24T08:24:05;5.90;;;4.03;;
52942;SDS011;38809;53.300;6.614;2023-07-24T08:26:31;8.60;;;4.63;;
52942;SDS011;38809;53.300;6.614;2023-07-24T08:28:57;9.82;;;4.35;;
52942;SDS011;38809;53.300;6.614;2023-07-24T08:31:23;5.68;;;4.45;;
52942;SDS011;38809;53.300;6.614;2023-07-24T08:33:48;6.85;;;4.03;;
52942;SDS011;38809;53.300;6.614;2023-07-24T08:36:14;6.78;;;3.83;;
52942;SDS011;38809;53.300;6.614;2023-07-24T08:38:41;13.27;;;4.15;;
52942;SDS011;38809;53.300;6.614;2023-07-24T08:41:08;16.63;;;3.92;;
52942;SDS011;38809;53.300;6.614;2023-07-24T08:43:36;5.68;;;4.05;;
52942;SDS011;38809;53.300;6.614;2023-07-24T08:46:03;5.00;;;3.78;;
52942;SDS011;38809;53.300;6.614;2023-07-24T08:48:30;7.10;;;4.05;;
52942;SDS011;38809;53.300;6.614;2023-07-24T08:51:06;5.68;;;3.38;;
52942;SDS011;38809;53.300;6.614;2023-07-24T08:53:34;5.07;;;3.25;;
52942;SDS011;38809;53.300;6.614;2023-07-24T08:56:07;4.85;;;3.40;;
52942;SDS011;38809;53.300;6.614;2023-07-24T08:58:34;7.07;;;3.83;;
52942;SDS011;38809;53.300;6.614;2023-07-24T09:01:01;6.60;;;3.70;;
52942;SDS011;38809;53.300;6.614;2023-07-24T09:03:29;5.95;;;3.70;;
52942;SDS011;38809;53.300;6.614;2023-07-24T09:05:55;7.13;;;3.97;;
52942;SDS011;38809;53.300;6.614;2023-07-24T09:08:31;6.18;;;3.40;;
52942;SDS011;38809;53.300;6.614;2023-07-24T09:10:58;6.22;;;3.45;;
52942;SDS011;38809;53.300;6.614;2023-07-24T09:13:25;4.80;;;3.28;;
52942;SDS011;38809;53.300;6.614;2023-07-24T09:15:51;5.85;;;3.80;;
52942;SDS011;38809;53.300;6.614;2023-07-24T09:18:16;5.90;;;2.78;;
52942;SDS011;38809;53.300;6.614;2023-07-24T09:20:43;6.63;;;3.53;;
52942;SDS011;38809;53.300;6.614;2023-07-24T09:23:10;6.88;;;3.45;;
52942;SDS011;38809;53.300;6.614;2023-07-24T09:25:38;7.90;;;4.35;;
52942;SDS011;38809;53.300;6.614;2023-07-24T09:28:24;7.00;;;3.58;;
52942;SDS011;38809;53.300;6.614;2023-07-24T09:30:56;5.70;;;3.22;;
52942;SDS011;38809;53.300;6.614;2023-07-24T09:36:05;5.07;;;3.20;;
52942;SDS011;38809;53.300;6.614;2023-07-24T09:38:39;5.50;;;3.17;;
52942;SDS011;38809;53.300;6.614;2023-07-24T09:41:05;7.63;;;3.78;;
52942;SDS011;38809;53.300;6.614;2023-07-24T09:45:57;6.72;;;3.38;;
52942;SDS011;38809;53.300;6.614;2023-07-24T09:48:24;5.28;;;3.20;;
52942;SDS011;38809;53.300;6.614;2023-07-24T09:50:54;6.13;;;3.65;;
52942;SDS011;38809;53.300;6.614;2023-07-24T09:53:24;4.38;;;3.10;;
52942;SDS011;38809;53.300;6.614;2023-07-24T09:55:56;4.90;;;2.90;;
52942;SDS011;38809;53.300;6.614;2023-07-24T09:58:23;4.53;;;3.30;;
52942;SDS011;38809;53.300;6.614;2023-07-24T10:00:51;4.97;;;3.20;;
52942;SDS011;38809;53.300;6.614;2023-07-24T10:03:17;5.50;;;3.15;;
52942;SDS011;38809;53.300;6.614;2023-07-24T10:05:45;5.65;;;3.25;;
52942;SDS011;38809;53.300;6.614;2023-07-24T10:08:12;4.82;;;2.75;;
52942;SDS011;38809;53.300;6.614;2023-07-24T10:10:42;4.65;;;2.60;;
52942;SDS011;38809;53.300;6.614;2023-07-24T10:13:09;5.07;;;2.55;;
52942;SDS011;38809;53.300;6.614;2023-07-24T10:15:39;4.75;;;3.10;;
52942;SDS011;38809;53.300;6.614;2023-07-24T10:18:08;6.20;;;3.17;;
52942;SDS011;38809;53.300;6.614;2023-07-24T10:20:35;4.70;;;3.20;;
52942;SDS011;38809;53.300;6.614;2023-07-24T10:23:04;4.80;;;2.80;;
52942;SDS011;38809;53.300;6.614;2023-07-24T10:25:31;5.25;;;2.90;;
52942;SDS011;38809;53.300;6.614;2023-07-24T10:28:02;6.55;;;3.42;;
52942;SDS011;38809;53.300;6.614;2023-07-24T10:30:32;4.78;;;2.80;;
52942;SDS011;38809;53.300;6.614;2023-07-24T10:35:53;4.90;;;2.50;;
52942;SDS011;38809;53.300;6.614;2023-07-24T10:38:19;5.10;;;2.22;;
52942;SDS011;38809;53.300;6.614;2023-07-24T10:41:01;4.50;;;2.63;;
52942;SDS011;38809;53.300;6.614;2023-07-24T10:43:28;5.90;;;2.95;;
52942;SDS011;38809;53.300;6.614;2023-07-24T10:46:04;5.22;;;2.80;;
52942;SDS011;38809;53.300;6.614;2023-07-24T10:48:30;5.88;;;2.85;;
52942;SDS011;38809;53.300;6.614;2023-07-24T10:50:55;6.05;;;3.35;;
52942;SDS011;38809;53.300;6.614;2023-07-24T10:53:22;4.53;;;2.70;;
52942;SDS011;38809;53.300;6.614;2023-07-24T10:55:48;5.03;;;3.03;;
52942;SDS011;38809;53.300;6.614;2023-07-24T10:58:16;4.38;;;2.88;;
52942;SDS011;38809;53.300;6.614;2023-07-24T11:00:42;5.10;;;2.67;;
52942;SDS011;38809;53.300;6.614;2023-07-24T11:03:13;3.97;;;2.50;;
52942;SDS011;38809;53.300;6.614;2023-07-24T11:05:40;5.20;;;2.63;;
52942;SDS011;38809;53.300;6.614;2023-07-24T11:08:14;5.03;;;3.42;;
52942;SDS011;38809;53.300;6.614;2023-07-24T11:10:51;4.22;;;3.05;;
52942;SDS011;38809;53.300;6.614;2023-07-24T11:13:26;5.13;;;2.72;;
52942;SDS011;38809;53.300;6.614;2023-07-24T11:15:53;4.65;;;3.05;;
52942;SDS011;38809;53.300;6.614;2023-07-24T11:18:20;5.75;;;3.90;;
52942;SDS011;38809;53.300;6.614;2023-07-24T11:20:51;5.75;;;3.67;;
52942;SDS011;38809;53.300;6.614;2023-07-24T11:23:17;6.68;;;3.83;;
52942;SDS011;38809;53.300;6.614;2023-07-24T11:25:43;5.97;;;3.95;;
52942;SDS011;38809;53.300;6.614;2023-07-24T11:28:10;6.63;;;4.20;;
52942;SDS011;38809;53.300;6.614;2023-07-24T11:30:37;7.20;;;4.53;;
52942;SDS011;38809;53.300;6.614;2023-07-24T11:33:04;6.13;;;4.38;;
52942;SDS011;38809;53.300;6.614;2023-07-24T11:35:31;6.90;;;4.10;;
52942;SDS011;38809;53.300;6.614;2023-07-24T11:37:57;6.60;;;3.67;;
52942;SDS011;38809;53.300;6.614;2023-07-24T11:40:30;4.55;;;3.45;;
52942;SDS011;38809;53.300;6.614;2023-07-24T11:43:04;6.65;;;3.75;;
52942;SDS011;38809;53.300;6.614;2023-07-24T11:47:56;5.88;;;4.20;;
52942;SDS011;38809;53.300;6.614;2023-07-24T11:50:22;6.20;;;4.25;;
52942;SDS011;38809;53.300;6.614;2023-07-24T11:52:49;5.93;;;4.28;;
52942;SDS011;38809;53.300;6.614;2023-07-24T11:55:17;5.45;;;3.72;;
52942;SDS011;38809;53.300;6.614;2023-07-24T11:57:55;6.25;;;4.03;;
52942;SDS011;38809;53.300;6.614;2023-07-24T12:00:25;7.78;;;3.50;;
52942;SDS011;38809;53.300;6.614;2023-07-24T12:02:51;6.57;;;4.15;;
52942;SDS011;38809;53.300;6.614;2023-07-24T12:05:17;7.93;;;4.22;;
52942;SDS011;38809;53.300;6.614;2023-07-24T12:10:10;8.02;;;4.00;;
52942;SDS011;38809;53.300;6.614;2023-07-24T12:12:44;5.93;;;3.60;;
52942;SDS011;38809;53.300;6.614;2023-07-24T12:15:12;5.75;;;3.92;;
52942;SDS011;38809;53.300;6.614;2023-07-24T12:17:39;5.55;;;3.70;;
52942;SDS011;38809;53.300;6.614;2023-07-24T12:20:05;4.55;;;3.38;;
52942;SDS011;38809;53.300;6.614;2023-07-24T12:22:33;4.68;;;3.15;;
52942;SDS011;38809;53.300;6.614;2023-07-24T12:25:00;4.45;;;3.47;;
52942;SDS011;38809;53.300;6.614;2023-07-24T12:27:26;5.45;;;3.60;;
52942;SDS011;38809;53.300;6.614;2023-07-24T12:29:52;5.45;;;3.60;;
52942;SDS011;38809;53.300;6.614;2023-07-24T12:32:17;4.70;;;3.47;;
52942;SDS011;38809;53.300;6.614;2023-07-24T12:34:44;5.93;;;3.60;;
52942;SDS011;38809;53.300;6.614;2023-07-24T12:37:12;5.15;;;3.47;;
52942;SDS011;38809;53.300;6.614;2023-07-24T12:39:37;4.50;;;3.40;;
52942;SDS011;38809;53.300;6.614;2023-07-24T12:42:04;5.63;;;3.97;;
52942;SDS011;38809;53.300;6.614;2023-07-24T12:44:31;4.88;;;3.40;;
52942;SDS011;38809;53.300;6.614;2023-07-24T12:46:57;4.30;;;3.65;;
52942;SDS011;38809;53.300;6.614;2023-07-24T12:49:23;5.18;;;3.38;;
52942;SDS011;38809;53.300;6.614;2023-07-24T12:51:48;4.05;;;3.35;;
52942;SDS011;38809;53.300;6.614;2023-07-24T12:54:14;4.97;;;3.20;;
52942;SDS011;38809;53.300;6.614;2023-07-24T12:56:40;5.38;;;3.63;;
52942;SDS011;38809;53.300;6.614;2023-07-24T12:59:05;5.40;;;3.42;;
52942;SDS011;38809;53.300;6.614;2023-07-24T13:01:31;4.43;;;3.15;;
52942;SDS011;38809;53.300;6.614;2023-07-24T13:03:57;5.05;;;3.33;;
52942;SDS011;38809;53.300;6.614;2023-07-24T13:06:23;5.25;;;3.40;;
52942;SDS011;38809;53.300;6.614;2023-07-24T13:08:49;4.90;;;3.08;;
52942;SDS011;38809;53.300;6.614;2023-07-24T13:11:15;4.28;;;3.35;;
52942;SDS011;38809;53.300;6.614;2023-07-24T13:13:41;6.15;;;3.72;;
52942;SDS011;38809;53.300;6.614;2023-07-24T13:16:07;3.88;;;3.08;;
52942;SDS011;38809;53.300;6.614;2023-07-24T13:18:32;3.63;;;2.47;;
52942;SDS011;38809;53.300;6.614;2023-07-24T13:20:58;2.90;;;1.90;;
52942;SDS011;38809;53.300;6.614;2023-07-24T13:23:24;3.67;;;1.98;;
52942;SDS011;38809;53.300;6.614;2023-07-24T13:25:51;2.13;;;1.23;;
52942;SDS011;38809;53.300;6.614;2023-07-24T13:28:18;1.52;;;1.00;;
52942;SDS011;38809;53.300;6.614;2023-07-24T13:30:44;2.03;;;1.20;;
52942;SDS011;38809;53.300;6.614;2023-07-24T13:33:10;2.45;;;1.48;;
52942;SDS011;38809;53.300;6.614;2023-07-24T13:35:36;2.38;;;1.25;;
52942;SDS011;38809;53.300;6.614;2023-07-24T13:40:28;1.92;;;0.93;;
52942;SDS011;38809;53.300;6.614;2023-07-24T13:42:53;3.20;;;1.25;;
52942;SDS011;38809;53.300;6.614;2023-07-24T13:45:19;5.80;;;1.38;;
52942;SDS011;38809;53.300;6.614;2023-07-24T13:47:45;3.03;;;1.33;;
52942;SDS011;38809;53.300;6.614;2023-07-24T13:50:10;2.13;;;1.08;;
52942;SDS011;38809;53.300;6.614;2023-07-24T13:52:36;2.67;;;1.00;;
52942;SDS011;38809;53.300;6.614;2023-07-24T13:55:02;2.72;;;1.10;;
52942;SDS011;38809;53.300;6.614;2023-07-24T13:59:53;2.80;;;1.60;;
52942;SDS011;38809;53.300;6.614;2023-07-24T14:02:19;2.63;;;1.30;;
52942;SDS011;38809;53.300;6.614;2023-07-24T14:04:45;3.05;;;1.33;;
52942;SDS011;38809;53.300;6.614;2023-07-24T14:07:10;4.70;;;1.55;;
52942;SDS011;38809;53.300;6.614;2023-07-24T14:09:38;5.60;;;1.52;;
52942;SDS011;38809;53.300;6.614;2023-07-24T14:12:04;6.43;;;1.80;;
52942;SDS011;38809;53.300;6.614;2023-07-24T14:14:30;6.45;;;1.60;;
52942;SDS011;38809;53.300;6.614;2023-07-24T14:16:56;2.90;;;1.20;;
52942;SDS011;38809;53.300;6.614;2023-07-24T14:19:22;3.63;;;1.63;;
52942;SDS011;38809;53.300;6.614;2023-07-24T14:21:51;3.90;;;1.38;;
52942;SDS011;38809;53.300;6.614;2023-07-24T14:24:17;4.78;;;1.50;;
52942;SDS011;38809;53.300;6.614;2023-07-24T14:26:42;9.40;;;1.70;;
52942;SDS011;38809;53.300;6.614;2023-07-24T14:29:10;4.47;;;1.25;;
52942;SDS011;38809;53.300;6.614;2023-07-24T14:34:02;6.55;;;2.25;;
52942;SDS011;38809;53.300;6.614;2023-07-24T14:38:59;3.92;;;1.33;;
52942;SDS011;38809;53.300;6.614;2023-07-24T14:41:26;3.10;;;1.20;;
52942;SDS011;38809;53.300;6.614;2023-07-24T14:43:52;4.60;;;1.38;;
52942;SDS011;38809;53.300;6.614;2023-07-24T14:46:17;3.20;;;1.10;;
52942;SDS011;38809;53.300;6.614;2023-07-24T14:48:43;2.83;;;1.27;;
52942;SDS011;38809;53.300;6.614;2023-07-24T14:51:09;6.13;;;1.13;;
52942;SDS011;38809;53.300;6.614;2023-07-24T14:53:34;4.43;;;1.20;;
52942;SDS011;38809;53.300;6.614;2023-07-24T14:56:02;3.35;;;1.00;;
52942;SDS011;38809;53.300;6.614;2023-07-24T14:58:28;2.55;;;1.25;;
52942;SDS011;38809;53.300;6.614;2023-07-24T15:00:54;4.38;;;1.10;;
52942;SDS011;38809;53.300;6.614;2023-07-24T15:03:19;3.22;;;1.00;;
52942;SDS011;38809;53.300;6.614;2023-07-24T15:05:46;4.10;;;1.40;;
52942;SDS011;38809;53.300;6.614;2023-07-24T15:08:11;6.18;;;1.02;;
52942;SDS011;38809;53.300;6.614;2023-07-24T15:10:37;2.95;;;1.10;;
52942;SDS011;38809;53.300;6.614;2023-07-24T15:13:03;2.00;;;0.90;;
52942;SDS011;38809;53.300;6.614;2023-07-24T15:15:28;3.10;;;1.35;;
52942;SDS011;38809;53.300;6.614;2023-07-24T15:17:55;5.03;;;1.63;;
52942;SDS011;38809;53.300;6.614;2023-07-24T15:20:21;4.68;;;1.30;;
52942;SDS011;38809;53.300;6.614;2023-07-24T15:22:47;1.85;;;1.00;;